Time;durP1;ratioP1;P1;durP2;ratioP2;P2;SDS_P1;SDS_P2;PMS_P1;PMS_P2;Temp;Humidity;BMP_temperature;BMP_pressure;BME280_temperature;BME280_humidity;BME280_pressure;Samples;Min_cycle;Max_cycle;Signal;HPM_P1;HPM_P2
2023/05/14 00:01:02;;;;;;;8.47;7.63;;;;;;;11.94;100.00;154426.72;5078759;28;20449;-84
2023/05/14 00:03:29;;;;;;;11.53;7.53;;;;;;;12.01;100.00;154443.59;5056054;28;20864;-83
2023/05/14 00:05:55;;;;;;;9.23;6.90;;;;;;;12.13;100.00;154474.66;5054287;28;20536;-83
2023/05/14 00:08:23;;;;;;;7.90;7.10;;;;;;;12.14;100.00;154477.28;5053623;28;20789;-83
2023/05/14 00:10:50;;;;;;;7.93;7.13;;;;;;;12.11;100.00;154469.50;5056927;28;20455;-83
2023/05/14 00:13:16;;;;;;;10.00;7.73;;;;;;;12.13;100.00;154475.97;5058310;28;20475;-83
2023/05/14 00:15:43;;;;;;;9.40;7.70;;;;;;;12.12;100.00;154473.41;5052833;28;20447;-83
2023/05/14 00:18:11;;;;;;;9.03;7.00;;;;;;;12.12;100.00;154473.41;5079182;28;20991;-83
2023/05/14 00:20:37;;;;;;;7.70;6.90;;;;;;;12.12;100.00;154472.13;5068504;28;20817;-83
2023/05/14 00:23:04;;;;;;;7.87;7.07;;;;;;;12.12;100.00;154473.41;5071673;28;20852;-83
2023/05/14 00:25:32;;;;;;;8.03;7.23;;;;;;;12.05;100.00;154455.25;5081759;28;20434;-83
2023/05/14 00:27:58;;;;;;;8.00;7.20;;;;;;;12.00;100.00;154442.28;5054574;28;20490;-83
2023/05/14 00:30:25;;;;;;;7.83;7.03;;;;;;;11.98;100.00;154437.09;5051648;28;20447;-83
2023/05/14 00:32:53;;;;;;;9.50;8.60;;;;;;;11.93;100.00;154424.16;5054982;28;20593;-83
2023/05/14 00:35:20;;;;;;;9.40;8.40;;;;;;;11.85;100.00;154403.41;5056093;28;20488;-83
2023/05/14 00:37:47;;;;;;;9.83;8.80;;;;;;;11.83;100.00;154398.22;5055585;28;20565;-83
2023/05/14 00:40:13;;;;;;;10.23;9.17;;;;;;;11.79;100.00;154387.84;5057851;28;20478;-83
2023/05/14 00:42:41;;;;;;;11.40;10.17;;;;;;;11.79;100.00;154387.84;5050418;28;20972;-83
2023/05/14 00:45:08;;;;;;;11.63;10.43;;;;;;;11.75;100.00;154377.50;5054699;28;20494;-83
2023/05/14 00:47:36;;;;;;;11.30;10.10;;;;;;;11.70;100.00;154364.53;5056073;28;20466;-83
2023/05/14 00:50:03;;;;;;;10.73;9.63;;;;;;;11.68;100.00;154359.28;5059865;28;20459;-83
2023/05/14 00:52:30;;;;;;;12.47;10.40;;;;;;;11.64;100.00;154348.94;5051408;28;20486;-83
2023/05/14 00:54:56;;;;;;;11.30;10.10;;;;;;;11.60;100.00;154339.84;5052535;28;20465;-83
2023/05/14 00:57:23;;;;;;;13.60;11.10;;;;;;;11.63;100.00;154347.63;5071418;28;20465;-83
2023/05/14 01:00:05;;;;;;;12.27;9.87;;;;;;;11.61;100.00;154342.44;5040937;28;20889;-83
2023/05/14 01:02:31;;;;;;;12.13;10.90;;;;;;;11.57;100.00;154332.06;5061743;28;20460;-83
2023/05/14 01:04:58;;;;;;;13.80;11.40;;;;;;;11.53;100.00;154320.41;5067366;28;20443;-83
2023/05/14 01:07:31;;;;;;;12.67;11.23;;;;;;;11.46;100.00;154302.28;5034775;28;21147;-83
2023/05/14 01:10:01;;;;;;;13.63;12.20;;;;;;;11.43;100.00;154294.50;5058284;28;20538;-83
2023/05/14 01:12:34;;;;;;;12.70;11.40;;;;;;;11.43;100.00;154294.50;5052334;28;20520;-83
2023/05/14 01:15:07;;;;;;;14.07;12.57;;;;;;;11.38;100.00;154282.84;5076724;28;20457;-83
2023/05/14 01:17:39;;;;;;;13.87;12.40;;;;;;;11.34;100.00;154272.47;5063084;28;20450;-83
2023/05/14 01:20:07;;;;;;;15.27;12.10;;;;;;;11.32;100.00;154266.00;5065995;28;20977;-83
2023/05/14 01:22:35;;;;;;;13.23;11.10;;;;;;;11.31;100.00;154263.38;5059065;28;20450;-83
2023/05/14 01:25:01;;;;;;;13.00;11.70;;;;;;;11.29;100.00;154258.22;5063865;28;20452;-83
2023/05/14 01:27:31;;;;;;;12.70;11.07;;;;;;;11.23;100.00;154242.66;5055392;28;20456;-82
2023/05/14 01:30:03;;;;;;;12.70;11.30;;;;;;;11.19;100.00;154232.31;5037017;28;20487;-83
2023/05/14 01:32:30;;;;;;;12.73;10.67;;;;;;;11.15;100.00;154221.94;5056415;28;20945;-83
2023/05/14 01:34:58;;;;;;;14.70;12.03;;;;;;;11.10;100.00;154210.28;5057496;28;20526;-83
2023/05/14 01:37:26;;;;;;;11.83;10.60;;;;;;;11.08;100.00;154205.13;5038670;28;20463;-83
2023/05/14 01:39:55;;;;;;;12.13;10.83;;;;;;;11.06;100.00;154198.63;5050300;28;20494;-83
2023/05/14 01:42:22;;;;;;;14.30;11.40;;;;;;;11.03;100.00;154192.16;5047059;28;20466;-83
2023/05/14 01:44:49;;;;;;;12.60;10.83;;;;;;;10.98;100.00;154180.53;5055967;28;20804;-83
2023/05/14 01:47:16;;;;;;;12.63;11.30;;;;;;;10.96;100.00;154174.06;5064641;28;20455;-83
2023/05/14 01:49:42;;;;;;;11.97;10.67;;;;;;;10.92;100.00;154164.97;5053679;28;20988;-83
2023/05/14 01:52:09;;;;;;;13.10;11.40;;;;;;;10.85;100.00;154146.84;5049415;28;20464;-83
2023/05/14 01:54:36;;;;;;;12.30;11.03;;;;;;;10.92;100.00;154164.97;5054148;28;20480;-83
2023/05/14 01:57:04;;;;;;;13.87;11.87;;;;;;;10.96;100.00;154175.31;5056508;28;20461;-83
2023/05/14 01:59:31;;;;;;;12.40;11.10;;;;;;;11.00;100.00;154185.69;5045335;28;20904;-83
2023/05/14 02:01:57;;;;;;;12.40;11.07;;;;;;;11.00;100.00;154185.69;5050190;28;20461;-83
2023/05/14 02:04:24;;;;;;;11.63;10.43;;;;;;;11.06;100.00;154198.63;5062699;28;20805;-83
2023/05/14 02:06:51;;;;;;;12.00;10.37;;;;;;;11.02;100.00;154190.84;5054919;28;20921;-83
2023/05/14 02:09:17;;;;;;;11.20;9.37;;;;;;;10.95;100.00;154171.44;5035885;28;20464;-83
2023/05/14 02:11:44;;;;;;;11.90;10.57;;;;;;;10.89;100.00;154155.88;5041233;28;20958;-83
2023/05/14 02:14:14;;;;;;;11.00;9.90;;;;;;;10.93;100.00;154166.28;5073386;28;20473;-83
2023/05/14 02:16:40;;;;;;;13.63;11.73;;;;;;;10.87;100.00;154152.03;5047331;28;20462;-83
2023/05/14 02:19:07;;;;;;;12.67;11.30;;;;;;;10.86;100.00;154149.41;5044005;28;20462;-83
2023/05/14 02:21:33;;;;;;;12.70;10.70;;;;;;;10.88;100.00;154154.56;5043600;28;20458;-83
2023/05/14 02:24:00;;;;;;;12.50;10.83;;;;;;;10.93;100.00;154167.53;5056700;28;20445;-83
2023/05/14 02:26:26;;;;;;;12.07;10.63;;;;;;;10.96;100.00;154175.31;5053126;28;20451;-84
2023/05/14 02:28:53;;;;;;;14.50;11.63;;;;;;;10.96;100.00;154175.31;5071816;28;20477;-83
2023/05/14 02:31:21;;;;;;;13.60;11.10;;;;;;;10.92;100.00;154164.97;5054408;28;21021;-83
2023/05/14 02:33:47;;;;;;;13.00;11.70;;;;;;;10.88;100.00;154154.56;5073342;28;21007;-83
2023/05/14 02:36:14;;;;;;;13.10;11.70;;;;;;;10.86;100.00;154149.41;5055687;28;20523;-83
2023/05/14 02:38:41;;;;;;;12.30;11.07;;;;;;;10.89;100.00;154157.19;5047158;28;20457;-83
2023/05/14 02:41:07;;;;;;;13.60;11.30;;;;;;;10.86;100.00;154148.09;5058309;28;20446;-83
2023/05/14 02:43:34;;;;;;;14.00;12.53;;;;;;;10.84;100.00;154144.25;5072348;28;20557;-83
2023/05/14 02:46:00;;;;;;;15.10;12.53;;;;;;;10.83;100.00;154141.63;5047833;28;20470;-83
2023/05/14 02:48:28;;;;;;;14.03;12.53;;;;;;;10.80;100.00;154133.84;5047823;28;20458;-83
2023/05/14 02:50:55;;;;;;;13.30;11.63;;;;;;;10.82;100.00;154137.78;5051615;28;20449;-83
2023/05/14 02:53:21;;;;;;;15.47;13.67;;;;;;;10.89;100.00;154157.19;5066829;28;20481;-83
2023/05/14 02:55:48;;;;;;;13.00;11.67;;;;;;;10.85;100.00;154146.84;5029441;28;20458;-83
2023/05/14 02:58:15;;;;;;;13.77;11.93;;;;;;;10.83;100.00;154140.31;5058192;28;20876;-83
2023/05/14 03:00:41;;;;;;;14.23;12.27;;;;;;;10.83;100.00;154140.31;5057515;28;20481;-83
2023/05/14 03:03:08;;;;;;;14.57;12.33;;;;;;;10.83;100.00;154140.31;5057870;28;20815;-83
2023/05/14 03:05:36;;;;;;;15.50;12.50;;;;;;;10.81;100.00;154135.16;5052305;28;20453;-83
2023/05/14 03:08:02;;;;;;;11.97;10.77;;;;;;;10.77;100.00;154126.13;5056599;28;20455;-83
2023/05/14 03:10:29;;;;;;;15.33;12.03;;;;;;;10.77;100.00;154124.81;5035287;28;20469;-83
2023/05/14 03:12:55;;;;;;;11.40;10.20;;;;;;;10.75;100.00;154119.66;5032941;28;20462;-83
2023/05/14 03:15:22;;;;;;;12.23;10.93;;;;;;;10.72;100.00;154113.13;5049225;28;20479;-83
2023/05/14 03:17:49;;;;;;;12.87;10.77;;;;;;;10.73;100.00;154115.75;5063392;28;20459;-83
2023/05/14 03:20:16;;;;;;;11.90;10.63;;;;;;;10.73;100.00;154114.44;5054158;28;20453;-83
2023/05/14 03:22:44;;;;;;;12.97;11.17;;;;;;;10.70;100.00;154107.97;5059413;28;20461;-83
2023/05/14 03:25:10;;;;;;;12.53;10.43;;;;;;;10.72;100.00;154113.13;5072639;28;20451;-83
2023/05/14 03:27:37;;;;;;;14.80;12.27;;;;;;;10.71;100.00;154110.56;5055889;28;20551;-83
2023/05/14 03:30:04;;;;;;;12.73;11.30;;;;;;;10.73;100.00;154115.75;5059907;28;20445;-83
2023/05/14 03:32:31;;;;;;;13.17;11.00;;;;;;;10.69;100.00;154105.41;5052555;28;20488;-83
2023/05/14 03:34:57;;;;;;;14.00;11.93;;;;;;;10.67;100.00;154100.19;5079658;28;21082;-83
2023/05/14 03:37:24;;;;;;;11.87;10.60;;;;;;;10.65;100.00;154095.03;5054419;28;20463;-83
2023/05/14 03:39:52;;;;;;;14.13;12.00;;;;;;;10.66;100.00;154096.31;5070576;28;20474;-83
2023/05/14 03:42:18;;;;;;;15.03;10.90;;;;;;;10.69;100.00;154105.41;5062336;28;20477;-83
2023/05/14 03:44:45;;;;;;;13.50;11.80;;;;;;;10.70;100.00;154107.97;5074075;28;20439;-83
2023/05/14 03:47:12;;;;;;;11.70;10.30;;;;;;;10.69;100.00;154105.41;5048801;28;20488;-83
2023/05/14 03:49:38;;;;;;;14.90;10.77;;;;;;;10.66;100.00;154096.31;5043321;28;20871;-83
2023/05/14 03:52:07;;;;;;;12.83;11.20;;;;;;;10.66;100.00;154097.63;5030398;28;20477;-83
2023/05/14 03:54:33;;;;;;;12.23;10.53;;;;;;;10.63;100.00;154088.56;5040881;28;20485;-83
2023/05/14 03:57:01;;;;;;;14.53;12.03;;;;;;;10.63;100.00;154089.84;5045421;28;20455;-83
2023/05/14 03:59:28;;;;;;;15.57;11.63;;;;;;;10.65;100.00;154095.03;5050932;28;20526;-83
2023/05/14 04:01:55;;;;;;;15.00;11.60;;;;;;;10.67;100.00;154098.94;5062978;28;20462;-83
2023/05/14 04:04:21;;;;;;;11.50;10.30;;;;;;;10.66;100.00;154097.63;5043778;28;20450;-83
2023/05/14 04:06:48;;;;;;;11.90;10.27;;;;;;;10.64;100.00;154092.47;5032542;28;20498;-83
2023/05/14 04:09:14;;;;;;;12.77;11.03;;;;;;;10.60;100.00;154080.78;5053439;28;21914;-83
2023/05/14 04:11:41;;;;;;;12.00;10.23;;;;;;;10.58;100.00;154075.59;5032228;28;20458;-83
2023/05/14 04:14:09;;;;;;;12.23;10.47;;;;;;;10.55;100.00;154069.13;5033356;28;20953;-83
2023/05/14 04:16:35;;;;;;;13.33;11.13;;;;;;;10.60;100.00;154080.78;5048295;28;20457;-83
2023/05/14 04:19:04;;;;;;;12.70;11.00;;;;;;;10.58;100.00;154076.91;5042840;28;20468;-83
2023/05/14 04:21:31;;;;;;;12.97;9.80;;;;;;;10.60;100.00;154080.78;5049842;28;20516;-83
2023/05/14 04:23:57;;;;;;;12.63;10.90;;;;;;;10.59;100.00;154079.47;5052245;28;20447;-83
2023/05/14 04:26:24;;;;;;;14.00;11.67;;;;;;;10.59;100.00;154079.47;5063350;28;20477;-83
2023/05/14 04:28:51;;;;;;;12.93;11.53;;;;;;;10.61;100.00;154084.69;5030406;28;20983;-82
2023/05/14 04:31:19;;;;;;;13.97;11.27;;;;;;;10.62;100.00;154087.25;5041015;28;20883;-83
2023/05/14 04:33:46;;;;;;;11.40;9.40;;;;;;;10.58;100.00;154076.91;5067295;28;20959;-83
2023/05/14 04:36:13;;;;;;;11.93;9.67;;;;;;;10.58;100.00;154076.91;5065829;28;20458;-83
2023/05/14 04:38:40;;;;;;;12.10;10.80;;;;;;;10.59;100.00;154078.22;5066016;28;20445;-83
2023/05/14 04:41:06;;;;;;;12.40;11.10;;;;;;;10.61;100.00;154084.69;5046639;28;20545;-83
2023/05/14 04:43:33;;;;;;;16.07;11.97;;;;;;;10.61;100.00;154084.69;5065025;28;20461;-83
2023/05/14 04:45:59;;;;;;;11.97;10.67;;;;;;;10.61;100.00;154084.69;5045948;28;20454;-83
2023/05/14 04:48:27;;;;;;;12.63;11.23;;;;;;;10.61;100.00;154083.38;5035813;28;20901;-82
2023/05/14 04:50:54;;;;;;;13.80;11.17;;;;;;;10.60;100.00;154080.78;5041596;28;20469;-83
2023/05/14 04:53:20;;;;;;;13.23;11.80;;;;;;;10.61;100.00;154083.38;5049238;28;21073;-82
2023/05/14 04:55:47;;;;;;;11.20;9.77;;;;;;;10.63;100.00;154089.84;5062900;28;20441;-83
2023/05/14 04:58:13;;;;;;;13.37;10.63;;;;;;;10.60;100.00;154080.78;5050840;28;20478;-82
2023/05/14 05:00:40;;;;;;;14.77;11.63;;;;;;;10.57;100.00;154074.31;5050213;28;20542;-82
2023/05/14 05:03:07;;;;;;;12.30;10.77;;;;;;;10.56;100.00;154071.75;5052691;28;20544;-82
2023/05/14 05:05:35;;;;;;;13.83;11.30;;;;;;;10.58;100.00;154076.91;5045149;28;20454;-82
2023/05/14 05:08:01;;;;;;;11.80;10.63;;;;;;;10.56;100.00;154071.75;5061118;28;20470;-83
2023/05/14 05:10:28;;;;;;;13.33;10.37;;;;;;;10.57;100.00;154074.31;5056219;28;20774;-82
2023/05/14 05:12:55;;;;;;;14.00;9.80;;;;;;;10.56;100.00;154070.44;5038308;28;20493;-82
2023/05/14 05:15:21;;;;;;;12.20;10.70;;;;;;;10.57;100.00;154073.00;5050967;28;20937;-82
2023/05/14 05:17:48;;;;;;;11.90;10.60;;;;;;;10.55;100.00;154069.13;5051746;28;20794;-82
2023/05/14 05:20:14;;;;;;;11.87;10.50;;;;;;;10.54;100.00;154066.53;5042934;28;20461;-82
2023/05/14 05:22:42;;;;;;;13.87;11.13;;;;;;;10.61;100.00;154084.69;5055501;28;20453;-82
2023/05/14 05:25:10;;;;;;;13.67;11.63;;;;;;;10.62;100.00;154087.25;5047489;28;20439;-83
2023/05/14 05:27:37;;;;;;;11.23;9.83;;;;;;;10.66;100.00;154096.31;5045138;28;20570;-82
2023/05/14 05:30:05;;;;;;;13.10;10.83;;;;;;;10.65;100.00;154095.03;5061015;28;20457;-82
2023/05/14 05:32:31;;;;;;;12.50;11.20;;;;;;;10.66;100.00;154097.63;5049764;28;20466;-83
2023/05/14 05:34:58;;;;;;;14.53;11.73;;;;;;;10.61;100.00;154084.69;5053562;28;20476;-82
2023/05/14 05:37:24;;;;;;;11.67;10.43;;;;;;;10.58;100.00;154075.59;5048086;28;20466;-82
2023/05/14 05:39:52;;;;;;;14.47;11.00;;;;;;;10.61;100.00;154084.69;5056073;28;20452;-82
2023/05/14 05:42:19;;;;;;;12.07;10.37;;;;;;;10.58;100.00;154075.59;5058530;28;20465;-82
2023/05/14 05:44:46;;;;;;;13.13;11.20;;;;;;;10.58;100.00;154076.91;5039462;28;20536;-82
2023/05/14 05:47:13;;;;;;;11.70;10.50;;;;;;;10.58;100.00;154076.91;5049091;28;20956;-82
2023/05/14 05:49:39;;;;;;;14.03;11.67;;;;;;;10.57;100.00;154074.31;5055057;28;20454;-83
2023/05/14 05:52:06;;;;;;;14.17;11.30;;;;;;;10.61;100.00;154083.38;5031732;28;20462;-82
2023/05/14 05:54:33;;;;;;;13.00;11.10;;;;;;;10.64;100.00;154091.16;5047935;28;20468;-82
2023/05/14 05:57:00;;;;;;;13.90;11.23;;;;;;;10.67;100.00;154100.19;5060708;28;20471;-83
2023/05/14 05:59:27;;;;;;;12.63;10.50;;;;;;;10.71;100.00;154109.28;5045436;28;20509;-82
2023/05/14 06:01:53;;;;;;;13.53;11.27;;;;;;;10.72;100.00;154113.13;5053597;28;20458;-82
2023/05/14 06:04:20;;;;;;;11.70;10.20;;;;;;;10.69;100.00;154105.41;5040346;28;20464;-82
2023/05/14 06:06:47;;;;;;;12.07;9.83;;;;;;;10.71;100.00;154109.28;5056282;28;20463;-82
2023/05/14 06:09:13;;;;;;;11.90;10.40;;;;;;;10.69;100.00;154105.41;5026333;28;20545;-82
2023/05/14 06:11:40;;;;;;;12.60;10.40;;;;;;;10.70;100.00;154107.97;5062893;28;20458;-82
2023/05/14 06:14:07;;;;;;;12.77;10.67;;;;;;;10.70;100.00;154106.66;5054075;28;21372;-82
2023/05/14 06:16:34;;;;;;;11.00;9.67;;;;;;;10.70;100.00;154106.66;5067561;28;21037;-82
2023/05/14 06:19:01;;;;;;;12.37;10.10;;;;;;;10.75;100.00;154119.66;5065134;28;20643;-82
2023/05/14 06:21:27;;;;;;;13.60;10.90;;;;;;;10.77;100.00;154126.13;5048672;28;20472;-82
2023/05/14 06:23:54;;;;;;;12.17;10.50;;;;;;;10.82;100.00;154139.06;5052019;28;20464;-82
2023/05/14 06:26:20;;;;;;;12.63;10.50;;;;;;;10.87;100.00;154152.03;5052422;28;20453;-82
2023/05/14 06:28:47;;;;;;;13.17;11.43;;;;;;;10.88;100.00;154154.56;5066199;28;20478;-82
2023/05/14 06:31:15;;;;;;;13.07;10.87;;;;;;;10.89;100.00;154157.19;5052320;28;20474;-82
2023/05/14 06:33:41;;;;;;;14.40;11.47;;;;;;;10.95;100.00;154171.44;5047462;28;20841;-82
2023/05/14 06:36:09;;;;;;;14.43;12.17;;;;;;;10.96;100.00;154175.31;5052462;28;20527;-82
2023/05/14 06:38:35;;;;;;;13.50;11.37;;;;;;;10.96;100.00;154175.31;5051108;28;20532;-82
2023/05/14 06:41:02;;;;;;;11.83;9.90;;;;;;;11.01;100.00;154188.25;5051229;28;20455;-83
2023/05/14 06:43:28;;;;;;;12.20;10.20;;;;;;;11.00;100.00;154185.69;5066844;28;20543;-77
2023/05/14 06:45:55;;;;;;;14.87;12.97;;;;;;;11.03;100.00;154192.16;5051423;28;20553;-77
2023/05/14 06:48:23;;;;;;;13.03;11.07;;;;;;;11.06;100.00;154198.63;5054354;28;20500;-77
2023/05/14 06:50:50;;;;;;;12.33;10.37;;;;;;;11.02;100.00;154190.84;5063277;28;20487;-77
2023/05/14 06:53:16;;;;;;;12.87;10.33;;;;;;;11.07;100.00;154201.25;5061487;28;20459;-77
2023/05/14 06:55:43;;;;;;;15.27;11.50;;;;;;;11.11;100.00;154211.59;5049976;28;20480;-77
2023/05/14 06:58:09;;;;;;;13.63;10.40;;;;;;;11.12;100.00;154215.44;5054223;28;20450;-77
2023/05/14 07:00:36;;;;;;;12.70;10.80;;;;;;;11.15;100.00;154223.22;5066560;28;20455;-77
2023/05/14 07:03:02;;;;;;;11.07;9.93;;;;;;;11.21;100.00;154238.78;5047440;28;20524;-76
2023/05/14 07:05:30;;;;;;;14.07;10.37;;;;;;;11.17;100.00;154227.16;5067723;28;20450;-77
2023/05/14 07:07:57;;;;;;;12.57;10.37;;;;;;;11.20;100.00;154234.94;5051832;28;20462;-77
2023/05/14 07:10:26;;;;;;;11.47;10.10;;;;;;;11.26;100.00;154250.44;5054581;28;20545;-77
2023/05/14 07:12:53;;;;;;;13.47;9.70;;;;;;;11.29;100.00;154259.53;5065694;28;20483;-77
2023/05/14 07:15:20;;;;;;;14.10;11.23;;;;;;;11.26;100.00;154251.75;5049804;28;20537;-76
2023/05/14 07:17:46;;;;;;;13.17;10.13;;;;;;;11.35;100.00;154273.78;5061133;28;20558;-76
2023/05/14 07:20:13;;;;;;;12.17;9.90;;;;;;;11.45;100.00;154299.69;5047957;28;20459;-76
2023/05/14 07:22:41;;;;;;;11.00;9.70;;;;;;;11.51;100.00;154315.25;5048671;28;20477;-76
2023/05/14 07:25:08;;;;;;;13.00;11.60;;;;;;;11.60;100.00;154339.84;5056654;28;20566;-77
2023/05/14 07:27:34;;;;;;;13.83;11.20;;;;;;;11.60;100.00;154338.53;5064924;28;20479;-76
2023/05/14 07:30:01;;;;;;;10.83;9.73;;;;;;;11.68;100.00;154359.28;5065944;28;20465;-76
2023/05/14 07:32:28;;;;;;;11.67;10.10;;;;;;;11.71;100.00;154367.09;5062040;28;20560;-77
2023/05/14 07:34:54;;;;;;;12.50;10.97;;;;;;;11.72;100.00;154368.41;5030643;28;20471;-77
2023/05/14 07:37:21;;;;;;;14.30;11.10;;;;;;;11.78;100.00;154385.22;5044650;28;20509;-77
2023/05/14 07:39:49;;;;;;;13.20;10.47;;;;;;;11.83;100.00;154398.22;5050065;28;20462;-77
2023/05/14 07:42:16;;;;;;;12.90;10.70;;;;;;;11.87;100.00;154407.28;5049185;28;20456;-77
2023/05/14 07:44:42;;;;;;;12.93;11.57;;;;;;;11.89;100.00;154412.44;5056026;28;20760;-77
2023/05/14 07:47:09;;;;;;;12.97;10.63;;;;;;;11.89;100.00;154413.75;5028776;28;20459;-77
2023/05/14 07:49:36;;;;;;;12.10;10.00;;;;;;;11.86;100.00;154405.97;5049513;28;20454;-77
2023/05/14 07:52:02;;;;;;;13.70;11.30;;;;;;;12.02;100.00;154447.44;5053196;28;20512;-77
2023/05/14 07:54:29;;;;;;;12.90;11.50;;;;;;;12.07;100.00;154460.41;5072040;28;20451;-77
2023/05/14 07:56:57;;;;;;;13.17;11.57;;;;;;;12.17;100.00;154485.06;5048379;28;20463;-77
2023/05/14 07:59:23;;;;;;;12.80;10.43;;;;;;;12.23;100.00;154501.91;5051582;28;20542;-77
2023/05/14 08:01:50;;;;;;;12.23;9.73;;;;;;;12.30;100.00;154518.78;5053996;28;20463;-77
2023/05/14 08:04:16;;;;;;;12.57;10.10;;;;;;;12.32;100.00;154523.94;5068725;28;21021;-77
2023/05/14 08:06:43;;;;;;;10.90;9.10;;;;;;;12.44;100.00;154555.09;5038434;28;20529;-77
2023/05/14 08:09:10;;;;;;;13.13;10.97;;;;;;;12.50;100.00;154569.31;5046638;28;20835;-77
2023/05/14 08:11:36;;;;;;;12.53;10.10;;;;;;;12.56;100.00;154584.91;5059929;28;20515;-76
2023/05/14 08:14:04;;;;;;;12.80;10.80;;;;;;;12.65;100.00;154608.25;5071771;28;20525;-77
2023/05/14 08:16:30;;;;;;;13.13;9.80;;;;;;;12.71;100.00;154623.78;5046559;28;20525;-76
2023/05/14 08:18:57;;;;;;;11.43;9.80;;;;;;;12.72;100.00;154626.41;5033883;28;20467;-77
2023/05/14 08:21:23;;;;;;;12.03;9.93;;;;;;;12.78;100.00;154643.28;5038732;28;21016;-75
2023/05/14 08:23:50;;;;;;;11.87;9.63;;;;;;;12.93;100.00;154680.88;5050465;28;20510;-76
2023/05/14 08:26:16;;;;;;;12.43;9.83;;;;;;;13.00;100.00;154699.03;5050446;28;20454;-76
2023/05/14 08:28:43;;;;;;;12.07;10.73;;;;;;;13.11;100.00;154726.31;5046998;28;20506;-76
2023/05/14 08:31:13;;;;;;;12.23;10.40;;;;;;;13.35;100.00;154789.91;5045514;28;20456;-77
2023/05/14 08:33:40;;;;;;;12.43;10.60;;;;;;;13.52;100.00;154832.75;5034675;28;20467;-77
2023/05/14 08:36:09;;;;;;;13.27;11.27;;;;;;;13.72;100.00;154883.34;5034274;28;20612;-77
2023/05/14 08:39:02;;;;;;;11.87;10.07;;;;;;;13.90;100.00;154930.06;5050391;28;20544;-77
2023/05/14 08:41:36;;;;;;;12.00;10.67;;;;;;;14.15;100.00;154993.69;5053790;28;20469;-77
2023/05/14 08:44:08;;;;;;;11.43;10.20;;;;;;;14.31;100.00;155036.59;5047978;28;20559;-77
2023/05/14 08:46:36;;;;;;;12.40;10.57;;;;;;;14.34;100.00;155044.41;5064468;28;20507;-77
2023/05/14 08:49:10;;;;;;;12.47;10.70;;;;;;;14.40;100.00;155059.94;5069359;28;20464;-77
2023/05/14 08:51:36;;;;;;;10.73;9.60;;;;;;;14.39;99.87;155056.06;5051474;28;20458;-77
2023/05/14 08:54:03;;;;;;;9.60;8.60;;;;;;;14.31;97.55;155035.25;5049270;28;20894;-77
2023/05/14 08:56:32;;;;;;;13.70;11.10;;;;;;;14.29;97.07;155031.38;5039050;28;20467;-77
2023/05/14 08:58:59;;;;;;;12.37;10.90;;;;;;;14.30;99.79;155033.94;5055962;28;20452;-77
2023/05/14 09:01:26;;;;;;;11.83;9.80;;;;;;;14.37;100.00;155050.88;5056083;28;20904;-77
2023/05/14 09:03:54;;;;;;;14.20;10.97;;;;;;;14.38;98.01;155053.47;5045013;28;20470;-77
2023/05/14 09:06:21;;;;;;;12.17;10.70;;;;;;;14.42;99.58;155065.19;5060986;28;20528;-77
2023/05/14 09:08:48;;;;;;;11.27;9.63;;;;;;;14.51;98.96;155087.22;5046765;28;20973;-77
2023/05/14 09:11:14;;;;;;;13.53;11.40;;;;;;;14.63;96.90;155119.72;5054445;28;20465;-77
2023/05/14 09:13:41;;;;;;;12.13;10.80;;;;;;;14.80;97.93;155162.56;5048807;28;20908;-77
2023/05/14 09:16:08;;;;;;;13.47;10.87;;;;;;;14.80;94.68;155161.31;5062257;28;20481;-78
2023/05/14 09:18:36;;;;;;;12.30;10.00;;;;;;;14.77;94.83;155153.50;5047027;28;20458;-77
2023/05/14 09:21:04;;;;;;;12.87;10.30;;;;;;;14.84;94.07;155171.66;5047742;28;20540;-77
2023/05/14 09:23:32;;;;;;;13.67;10.50;;;;;;;14.94;96.45;155197.66;5041544;28;20456;-77
2023/05/14 09:26:00;;;;;;;11.53;10.37;;;;;;;15.08;93.35;155234.03;5039605;28;20813;-78
2023/05/14 09:28:27;;;;;;;11.40;10.20;;;;;;;14.94;92.80;155198.94;5065473;28;20478;-78
2023/05/14 09:30:54;;;;;;;12.10;10.87;;;;;;;15.03;93.29;155222.34;5051022;28;20477;-77
2023/05/14 09:33:28;;;;;;;11.80;10.60;;;;;;;14.99;92.17;155210.63;5049374;28;20875;-77
2023/05/14 09:35:59;;;;;;;11.63;9.27;;;;;;;15.06;89.63;155230.09;5066022;28;20491;-75
2023/05/14 09:38:31;;;;;;;12.33;9.60;;;;;;;15.10;86.93;155239.22;5065845;28;20456;-77
2023/05/14 09:40:58;;;;;;;9.03;8.07;;;;;;;14.92;86.23;155192.47;5061897;28;20983;-75
2023/05/14 09:43:25;;;;;;;9.33;8.37;;;;;;;15.05;87.81;155227.53;5051216;28;20818;-77
2023/05/14 09:45:52;;;;;;;10.63;9.53;;;;;;;15.01;89.78;155215.88;5054634;28;20447;-78
2023/05/14 09:48:18;;;;;;;11.60;10.40;;;;;;;15.08;89.05;155234.03;5051223;28;20471;-77
2023/05/14 09:50:46;;;;;;;11.87;9.53;;;;;;;15.03;88.88;155222.34;5040142;28;20845;-77
2023/05/14 09:53:13;;;;;;;11.60;10.37;;;;;;;14.97;89.41;155205.44;5051759;28;20466;-78
2023/05/14 09:55:41;;;;;;;11.70;9.83;;;;;;;14.90;90.30;155188.56;5044025;28;20470;-77
2023/05/14 09:58:08;;;;;;;10.20;8.10;;;;;;;14.91;88.61;155191.16;5023912;28;20703;-77
2023/05/14 10:00:35;;;;;;;10.40;9.30;;;;;;;14.99;89.56;155211.94;5051791;28;20458;-77
2023/05/14 10:03:05;;;;;;;11.27;10.03;;;;;;;15.08;89.87;155235.34;5032599;28;20473;-77
2023/05/14 10:05:33;;;;;;;11.57;9.77;;;;;;;15.15;89.93;155253.53;5027468;28;20500;-77
2023/05/14 10:08:02;;;;;;;12.77;9.63;;;;;;;15.03;86.90;155221.03;5042978;28;20838;-77
2023/05/14 10:10:29;;;;;;;12.40;8.70;;;;;;;14.95;88.79;155200.25;5052784;28;20438;-77
2023/05/14 10:13:03;;;;;;;11.40;9.73;;;;;;;14.88;89.63;155182.09;5046289;28;20541;-77
2023/05/14 10:15:34;;;;;;;11.53;10.13;;;;;;;14.84;89.85;155171.66;5065175;28;20870;-77
2023/05/14 10:18:06;;;;;;;10.97;9.87;;;;;;;14.83;90.36;155169.06;5047129;28;20525;-77
2023/05/14 10:20:33;;;;;;;12.20;10.40;;;;;;;14.80;89.73;155162.56;5068618;28;20465;-77
2023/05/14 10:23:00;;;;;;;10.70;9.60;;;;;;;14.78;90.52;155157.38;5052672;28;20531;-77
2023/05/14 10:25:27;;;;;;;10.93;9.83;;;;;;;14.78;90.26;155156.06;5066188;28;20486;-77
2023/05/14 10:27:54;;;;;;;10.10;8.87;;;;;;;14.87;90.97;155180.78;5063381;28;20481;-78
2023/05/14 10:30:22;;;;;;;9.70;8.70;;;;;;;14.99;88.45;155210.63;5049109;28;20442;-77
2023/05/14 10:32:49;;;;;;;10.53;9.20;;;;;;;15.05;89.52;155227.53;5067796;28;20468;-77
2023/05/14 10:35:17;;;;;;;11.00;8.77;;;;;;;15.20;90.23;155265.19;5063516;28;20467;-77
2023/05/14 10:37:44;;;;;;;8.77;7.87;;;;;;;15.34;89.22;155300.28;5052650;28;20961;-77
2023/05/14 10:40:12;;;;;;;9.03;8.13;;;;;;;15.35;86.15;155302.91;5050016;28;20462;-77
2023/05/14 10:42:41;;;;;;;8.80;7.90;;;;;;;15.29;86.68;155288.63;5051314;28;20528;-77
2023/05/14 10:45:09;;;;;;;8.67;7.77;;;;;;;15.21;86.16;155267.81;5051254;28;20874;-77
2023/05/14 10:47:38;;;;;;;8.77;7.70;;;;;;;15.30;87.37;155291.22;5052240;28;20595;-77
2023/05/14 10:50:06;;;;;;;8.80;7.90;;;;;;;15.41;88.24;155318.53;5051052;28;20974;-77
2023/05/14 10:52:33;;;;;;;7.93;7.10;;;;;;;15.37;86.01;155309.41;5066893;28;20535;-77
2023/05/14 10:55:02;;;;;;;7.77;7.03;;;;;;;15.44;86.62;155327.59;5055800;28;20477;-77
2023/05/14 10:57:30;;;;;;;8.40;7.50;;;;;;;15.42;84.44;155322.41;5057892;28;21007;-77
2023/05/14 10:59:58;;;;;;;7.93;7.13;;;;;;;15.42;83.36;155321.09;5067636;28;20478;-77
2023/05/14 11:02:26;;;;;;;9.17;8.00;;;;;;;15.64;85.89;155379.66;5062815;28;20475;-76
2023/05/14 11:05:02;;;;;;;8.33;7.43;;;;;;;15.86;84.23;155434.25;5061649;28;20446;-76
2023/05/14 11:07:32;;;;;;;9.80;8.80;;;;;;;15.96;82.73;155460.25;5052250;28;20453;-77